Yuba City Weather - Station Historical Data
 
Daily Summary for April 19, 2018 Units:  English    Metric   Both
Next Day »
Daily Weekly Monthly Yearly Custom
  Current: High: Low: Average:
Temperature: 71.7 °F 71.7 °F 40.9 °F 51.3 °F
Dew Point: 47.4 °F 51.4 °F 40.9 °F 45.2 °F
Humidity: 42% 100% 42% 83%
Wind Speed: 3.5mph 9.2mph 0.0mph 1.9mph
Wind Gust: 3.5mph 9.2mph - -
WindNNW - - SSW
Pressure: 29.98 in 30.00 in 29.95 in -
Precipitation: 0.00 in      
Historical Graphs
 
 
Tabular Data for April 19, 2018
Time Temperature Dew Point Pressure Wind Wind Speed Wind Gust Humidity Rainfall Rate (Hourly) Conditions
00:04 47.5 °F 45.3 °F 29.95 in Calm     92% 0.00 in CLR
00:09 46.9 °F 45.0 °F 29.95 in Calm     93% 0.00 in CLR
00:14 46.7 °F 45.3 °F 29.95 in Calm     95% 0.00 in CLR
00:19 46.8 °F 45.2 °F 29.96 in Calm     94% 0.00 in CLR
00:24 46.5 °F 45.1 °F 29.96 in Calm     95% 0.00 in CLR
00:29 46.3 °F 44.9 °F 29.96 in Calm     95% 0.00 in CLR
00:34 46.3 °F 45.2 °F 29.96 in Calm     96% 0.00 in CLR
00:39 46.1 °F 44.7 °F 29.96 in Calm     95% 0.00 in CLR
00:44 45.9 °F 44.8 °F 29.96 in Calm     96% 0.00 in CLR
00:49 45.8 °F 44.7 °F 29.96 in Calm     96% 0.00 in CLR
00:54 45.8 °F 45.0 °F 29.96 in Calm     97% 0.00 in CLR
00:59 45.5 °F 44.7 °F 29.96 in Calm     97% 0.00 in CLR
01:04 45.3 °F 45.3 °F 29.96 in Calm     100% 0.00 in CLR
01:09 45.2 °F 45.2 °F 29.96 in Calm     100% 0.00 in CLR
01:14 45.2 °F 45.2 °F 29.96 in Calm     100% 0.00 in CLR
01:19 45.1 °F 45.1 °F 29.96 in Calm     100% 0.00 in CLR
01:24 45.2 °F 45.2 °F 29.96 in Calm     100% 0.00 in CLR
01:29 45.1 °F 45.1 °F 29.96 in Calm     100% 0.00 in CLR
01:34 45.1 °F 45.1 °F 29.96 in Calm     100% 0.00 in CLR
01:39 45.2 °F 45.2 °F 29.96 in Calm     100% 0.00 in CLR
01:44 45.6 °F 44.8 °F 29.96 in Calm     97% 0.00 in CLR
01:49 45.9 °F 44.8 °F 29.96 in Calm     96% 0.00 in CLR
01:54 46.0 °F 44.6 °F 29.96 in ENE 2.3 mph 2.3 mph 95% 0.00 in CLR
01:59 46.2 °F 45.4 °F 29.96 in Calm     97% 0.00 in CLR
02:04 46.3 °F 46.3 °F 29.96 in ENE 1.2 mph 1.2 mph 100% 0.00 in CLR
02:09 46.3 °F 46.3 °F 29.96 in Calm     100% 0.00 in CLR
02:14 45.7 °F 44.9 °F 29.96 in Calm     97% 0.00 in CLR
02:19 45.6 °F 45.6 °F 29.96 in ENE 1.2 mph   100% 0.00 in CLR
02:24 45.8 °F 45.8 °F 29.96 in ENE 1.2 mph 1.2 mph 100% 0.00 in CLR
02:29 45.8 °F 45.8 °F 29.96 in ENE 1.2 mph 1.2 mph 100% 0.00 in CLR
02:34 45.3 °F 45.3 °F 29.96 in Calm     100% 0.00 in CLR
02:39 44.5 °F 44.5 °F 29.96 in Calm     100% 0.00 in CLR
02:44 43.8 °F 43.8 °F 29.96 in Calm     100% 0.00 in CLR
02:49 43.8 °F 43.8 °F 29.96 in Calm     100% 0.00 in CLR
02:54 43.6 °F 43.6 °F 29.96 in Calm     100% 0.00 in CLR
02:59 43.6 °F 43.6 °F 29.96 in Calm     100% 0.00 in CLR
03:04 43.5 °F 43.5 °F 29.96 in Calm     100% 0.00 in CLR
03:09 43.4 °F 43.4 °F 29.96 in Calm     100% 0.00 in CLR
03:14 43.5 °F 43.5 °F 29.96 in Calm     100% 0.00 in CLR
03:19 43.3 °F 43.3 °F 29.96 in Calm     100% 0.00 in CLR
03:24 43.7 °F 43.7 °F 29.97 in SW 2.3 mph 2.3 mph 100% 0.00 in CLR
03:29 43.9 °F 43.9 °F 29.97 in Calm     100% 0.00 in CLR
03:34 44.0 °F 44.0 °F 29.97 in Calm     100% 0.00 in CLR
03:39 43.6 °F 43.6 °F 29.97 in Calm     100% 0.00 in CLR
03:44 43.4 °F 43.4 °F 29.97 in Calm     100% 0.00 in CLR
03:49 43.5 °F 43.5 °F 29.97 in Calm     100% 0.00 in CLR
03:54 43.4 °F 43.4 °F 29.97 in Calm     100% 0.00 in CLR
03:59 42.9 °F 42.9 °F 29.96 in Calm     100% 0.00 in CLR
04:04 42.7 °F 42.7 °F 29.97 in Calm     100% 0.00 in CLR
04:09 42.5 °F 42.5 °F 29.97 in Calm     100% 0.00 in CLR
04:14 42.3 °F 42.3 °F 29.97 in Calm     100% 0.00 in CLR
04:19 42.3 °F 42.3 °F 29.97 in Calm     100% 0.00 in CLR
04:24 42.0 °F 42.0 °F 29.97 in Calm     100% 0.00 in CLR
04:29 42.1 °F 42.1 °F 29.97 in Calm     100% 0.00 in CLR
04:34 42.1 °F 42.1 °F 29.97 in Calm     100% 0.00 in CLR
04:39 42.0 °F 42.0 °F 29.96 in Calm     100% 0.00 in CLR
04:44 41.9 °F 41.9 °F 29.96 in Calm     100% 0.00 in CLR
04:49 42.0 °F 42.0 °F 29.96 in Calm     100% 0.00 in CLR
04:54 42.1 °F 42.1 °F 29.96 in Calm     100% 0.00 in CLR
04:59 42.1 °F 42.1 °F 29.97 in Calm     100% 0.00 in CLR
05:04 41.8 °F 41.8 °F 29.97 in Calm     100% 0.00 in CLR
05:09 41.6 °F 41.6 °F 29.96 in Calm     100% 0.00 in CLR
05:14 41.5 °F 41.5 °F 29.97 in Calm     100% 0.00 in CLR
05:19 41.5 °F 41.5 °F 29.97 in Calm     100% 0.00 in CLR
05:24 41.6 °F 41.6 °F 29.97 in Calm     100% 0.00 in CLR
05:29 41.3 °F 41.3 °F 29.97 in Calm     100% 0.00 in CLR
05:34 41.3 °F 41.3 °F 29.97 in Calm     100% 0.00 in CLR
05:39 41.3 °F 41.3 °F 29.97 in Calm     100% 0.00 in CLR
05:44 41.3 °F 41.3 °F 29.96 in Calm     100% 0.00 in CLR
05:49 41.2 °F 41.2 °F 29.97 in Calm     100% 0.00 in CLR
05:54 41.0 °F 41.0 °F 29.97 in Calm     100% 0.00 in CLR
05:59 40.9 °F 40.9 °F 29.97 in Calm     100% 0.00 in CLR
06:04 40.9 °F 40.9 °F 29.97 in Calm     100% 0.00 in CLR
06:09 41.1 °F 41.1 °F 29.97 in Calm     100% 0.00 in CLR
06:14 41.1 °F 41.1 °F 29.97 in Calm     100% 0.00 in CLR
06:19 40.9 °F 40.9 °F 29.97 in Calm     100% 0.00 in CLR
06:24 41.2 °F 41.2 °F 29.97 in Calm     100% 0.00 in CLR
06:29 40.9 °F 40.9 °F 29.98 in Calm     100% 0.00 in CLR
06:34 40.9 °F 40.9 °F 29.98 in Calm     100% 0.00 in CLR
06:39 40.9 °F 40.9 °F 29.98 in Calm     100% 0.00 in CLR
06:44 41.0 °F 41.0 °F 29.98 in Calm     100% 0.00 in CLR
06:49 40.9 °F 40.9 °F 29.98 in Calm     100% 0.00 in CLR
06:54 41.2 °F 41.2 °F 29.98 in Calm     100% 0.00 in CLR
06:59 41.7 °F 41.7 °F 29.97 in WSW 1.2 mph   100% 0.00 in CLR
07:04 42.3 °F 42.3 °F 29.97 in Calm     100% 0.00 in CLR
07:09 42.9 °F 42.9 °F 29.98 in WSW 1.2 mph 1.2 mph 100% 0.00 in CLR
07:14 43.6 °F 43.6 °F 29.98 in Calm     100% 0.00 in CLR
07:19 44.0 °F 43.2 °F 29.98 in NW 2.3 mph 2.3 mph 97% 0.00 in CLR
07:24 44.0 °F 43.2 °F 29.98 in WNW 2.3 mph 2.3 mph 97% 0.00 in CLR
07:29 44.2 °F 43.4 °F 29.99 in NE 2.3 mph 2.3 mph 97% 0.00 in CLR
07:34 44.6 °F 43.5 °F 29.99 in NNE 3.5 mph 3.5 mph 96% 0.00 in CLR
07:39 44.9 °F 43.8 °F 29.99 in South 1.2 mph 1.2 mph 96% 0.00 in CLR
07:44 45.4 °F 44.1 °F 29.99 in NNW 2.3 mph 2.3 mph 95% 0.00 in CLR
07:49 45.5 °F 43.9 °F 29.99 in ENE 3.5 mph 3.5 mph 94% 0.00 in CLR
07:54 46.1 °F 44.5 °F 29.99 in NE 1.2 mph 1.2 mph 94% 0.00 in CLR
07:59 47.0 °F 44.8 °F 29.99 in ENE 1.2 mph 1.2 mph 92% 0.00 in CLR
08:04 47.7 °F 45.2 °F 30.00 in South 1.2 mph 1.2 mph 91% 0.00 in CLR
08:09 48.3 °F 45.5 °F 30.00 in South 2.3 mph 2.3 mph 90% 0.00 in CLR
08:14 48.7 °F 45.6 °F 30.00 in SSE 1.2 mph 1.2 mph 89% 0.00 in CLR
08:19 49.7 °F 46.0 °F 30.00 in South 2.3 mph 2.3 mph 87% 0.00 in CLR
08:24 49.5 °F 45.5 °F 30.00 in SW 2.3 mph 2.3 mph 86% 0.00 in CLR
08:29 50.5 °F 46.2 °F 30.00 in WSW 4.6 mph 4.6 mph 85% 0.00 in CLR
08:34 50.6 °F 45.9 °F 30.00 in WSW 3.5 mph 3.5 mph 84% 0.00 in CLR
08:39 51.3 °F 46.9 °F 30.00 in SW 2.3 mph 2.3 mph 85% 0.00 in CLR
08:44 51.5 °F 46.5 °F 30.00 in SW 2.3 mph 2.3 mph 83% 0.00 in CLR
08:49 51.3 °F 46.3 °F 30.00 in SW 2.3 mph 2.3 mph 83% 0.00 in CLR
08:54 52.2 °F 46.5 °F 30.00 in West 3.5 mph 3.5 mph 81% 0.00 in CLR
08:59 53.0 °F 47.7 °F 30.00 in WSW 2.3 mph 2.3 mph 82% 0.00 in CLR
09:04 53.0 °F 46.7 °F 30.00 in SSW 2.0 mph 2.0 mph 79% 0.00 in CLR
09:09 53.6 °F 47.2 °F 30.00 in South 3.5 mph 3.5 mph 79% 0.00 in CLR
09:14 53.9 °F 47.2 °F 30.00 in WSW 1.2 mph 1.2 mph 78% 0.00 in CLR
09:19 54.9 °F 48.5 °F 30.00 in WSW 2.3 mph 2.3 mph 79% 0.00 in CLR
09:46 57.0 °F 47.7 °F 30.00 in South 3.5 mph 3.5 mph 71% 0.00 in CLR
09:51 58.0 °F 47.9 °F 30.00 in WSW 4.0 mph 4.0 mph 69% 0.00 in CLR
09:56 58.2 °F 46.5 °F 30.00 in SW 2.3 mph 2.3 mph 65% 0.00 in CLR
10:01 58.2 °F 46.1 °F 30.00 in West 4.6 mph 4.6 mph 64% 0.00 in CLR
10:06 58.4 °F 47.5 °F 30.00 in WSW 2.3 mph 2.3 mph 67% 0.00 in CLR
10:11 59.3 °F 46.3 °F 30.00 in South 3.5 mph 3.5 mph 62% 0.00 in CLR
10:16 59.9 °F 46.4 °F 30.00 in SSW 3.5 mph 3.5 mph 61% 0.00 in CLR
10:21 59.9 °F 46.0 °F 30.00 in WNW 5.8 mph 5.8 mph 60% 0.00 in CLR
10:26 59.9 °F 46.0 °F 30.00 in West 8.1 mph 8.1 mph 60% 0.00 in CLR
10:31 59.3 °F 47.9 °F 30.00 in SW 5.8 mph 5.8 mph 66% 0.00 in CLR
10:36 59.9 °F 46.8 °F 30.00 in SW 6.9 mph 6.9 mph 62% 0.00 in CLR
10:41 60.3 °F 47.6 °F 30.00 in SSE 3.5 mph 3.5 mph 63% 0.00 in CLR
10:46 61.2 °F 48.9 °F 30.00 in WSW 3.5 mph 3.5 mph 64% 0.00 in CLR
10:51 62.1 °F 48.5 °F 30.00 in ENE 6.9 mph 6.9 mph 61% 0.00 in CLR
10:56 61.2 °F 48.1 °F 30.00 in SW 3.5 mph 3.5 mph 62% 0.00 in CLR
10:58 61.3 °F 48.2 °F 30.00 in South 2.3 mph 2.3 mph 62% 0.00 in CLR
11:03 61.5 °F 49.6 °F 30.00 in WSW 2.3 mph 2.3 mph 65% 0.00 in CLR
11:08 62.0 °F 47.5 °F 30.00 in WSW 3.5 mph 3.5 mph 59% 0.00 in CLR
11:13 62.3 °F 47.3 °F 30.00 in South 5.8 mph 5.8 mph 58% 0.00 in CLR
11:18 62.7 °F 48.6 °F 30.00 in ENE 8.1 mph 8.1 mph 60% 0.00 in CLR
11:23 63.2 °F 47.7 °F 30.00 in SSW 5.8 mph 5.8 mph 57% 0.00 in CLR
11:28 63.5 °F 48.0 °F 30.00 in SE 3.5 mph 3.5 mph 57% 0.00 in CLR
11:33 64.9 °F 48.3 °F 30.00 in ESE 9.2 mph 9.2 mph 55% 0.00 in CLR
11:38 64.3 °F 47.8 °F 30.00 in South 4.6 mph 4.6 mph 55% 0.00 in CLR
11:43 64.4 °F 47.9 °F 30.00 in SW 3.5 mph 3.5 mph 55% 0.00 in CLR
11:48 65.0 °F 49.4 °F 30.00 in SW 4.6 mph 4.6 mph 57% 0.00 in CLR
11:53 66.1 °F 51.4 °F 30.00 in SSE 4.0 mph 4.0 mph 59% 0.00 in CLR
11:58 67.1 °F 49.4 °F 30.00 in SW 3.0 mph 3.0 mph 53% 0.00 in CLR
12:03 66.4 °F 49.2 °F 30.00 in SW 5.8 mph 5.8 mph 54% 0.00 in CLR
12:08 67.4 °F 48.1 °F 30.00 in South 3.5 mph 3.5 mph 50% 0.00 in CLR
12:13 67.8 °F 51.0 °F 30.00 in South 5.8 mph 5.8 mph 55% 0.00 in CLR
12:18 68.1 °F 49.8 °F 30.00 in SSW 3.5 mph 3.5 mph 52% 0.00 in CLR
12:23 67.9 °F 50.6 °F 29.99 in West 3.5 mph 3.5 mph 54% 0.00 in CLR
12:28 67.2 °F 47.9 °F 29.99 in SSE 8.1 mph 8.1 mph 50% 0.00 in CLR
12:33 67.6 °F 48.3 °F 29.99 in SSW 6.0 mph 6.0 mph 50% 0.00 in CLR
12:38 68.3 °F 48.9 °F 29.99 in SW 2.3 mph 2.3 mph 50% 0.00 in CLR
12:43 68.1 °F 48.2 °F 29.99 in WSW 3.5 mph 3.5 mph 49% 0.00 in CLR
12:48 68.6 °F 49.7 °F 29.99 in WSW 3.5 mph 3.5 mph 51% 0.00 in CLR
12:53 68.3 °F 48.9 °F 29.99 in SW 3.5 mph 3.5 mph 50% 0.00 in CLR
12:58 68.9 °F 51.1 °F 29.99 in South 3.5 mph 3.5 mph 53% 0.00 in CLR
13:03 68.8 °F 48.3 °F 29.99 in SSW 9.2 mph 9.2 mph 48% 0.00 in CLR
13:08 69.4 °F 47.1 °F 29.99 in South 9.2 mph 9.2 mph 45% 0.00 in CLR
13:13 69.6 °F 48.5 °F 29.99 in SW 4.0 mph 4.0 mph 47% 0.00 in CLR
13:18 69.5 °F 48.4 °F 29.99 in SSW 4.6 mph 4.6 mph 47% 0.00 in CLR
13:23 70.1 °F 50.0 °F 29.98 in SSE 3.5 mph 3.5 mph 49% 0.00 in CLR
13:28 70.6 °F 48.8 °F 29.98 in SSW 4.0 mph 4.0 mph 46% 0.00 in CLR
13:33 69.2 °F 47.5 °F 29.98 in SSW 5.8 mph 5.8 mph 46% 0.00 in CLR
13:38 70.9 °F 49.1 °F 29.98 in South 4.6 mph 4.6 mph 46% 0.00 in CLR
13:43 70.2 °F 47.9 °F 29.99 in SSE 5.0 mph 5.0 mph 45% 0.00 in CLR
13:48 71.1 °F 49.3 °F 29.98 in SW 4.0 mph 4.0 mph 46% 0.00 in CLR
13:53 71.5 °F 49.0 °F 29.98 in SW 3.5 mph 3.5 mph 45% 0.00 in CLR
13:58 71.3 °F 49.4 °F 29.99 in SSW 4.0 mph 4.0 mph 46% 0.00 in CLR
14:03 71.7 °F 47.4 °F 29.98 in NNW 3.5 mph 3.5 mph 42% 0.00 in CLR
Yuba City, California, USA

Instrument Rack Compliments of Weather Underground

WU-history PHP script courtesy of Juneau County Weather.

spacer wunderground wow PWS SWWN Image Map